Terminal Aerodrome Forecast
Issued by NWS

Home | Current Version | Previous Version | Text Only | Print | Product List | Glossary On
Versions: 1 2 3 4 5 6 7 8 9 10 11 12 13 14 15 16 17 18 19 20 21 22 23 24 25 26 27 28 29 30
000
FTUS45 KGJT 300520
TAFASE
TAF
KASE 300520Z 3006/0106 VRB03KT P6SM -RA SCT035 OVC060
     FM300900 21005KT P6SM VCFG FEW015 SCT060 BKN090
     FM301500 VRB03KT P6SM BKN120
     FM301800 35006KT P6SM VCSH SCT050 BKN100
     FM010200 21004KT P6SM VCSH SCT050 BKN100=

USA.gov is the U.S. government's official web portal to all federal, state and local government web resources and services.